Ghent, NY

5:50 AM EDT on September 20, 2014 (GMT -0400)
Saugerties Lighthouse, Hudson River | Change Station
CLOSE
Current Station
Personal Weather Station
Location: Saugerties, NY
Elevation: 46 ft
Nearby Weather Stations

Elev 46 ft 42.07 °N, 73.93 °W | Updated 1 minute ago

Overcast
Overcast
55.7 °F
Feels Like 55.7 °F
N
3.0
Wind Variable Wind from WSW
Gusts 12.0 mph

Today
High -- | Low -- °F
--% Chance of Precip.
Yesterday
High -- | Low -- °F
Precip. -- in
6:40 AM 6:55 PM
Waning Crescent, 13% visible
Pressure 30.29 in
Visibility 10.0 miles
Clouds Mostly Cloudy 2700 ft
Overcast 3200 ft
Dew Point 51 °F
Humidity 85%
Rainfall 0.00 in
Snow Depth Not available.
UV 0 out of 12
Pollen 3.00 out of 12
PM2.5 Good
Flu Activity Not available.
METAR KPSF 200854Z AUTO 00000KT 10SM BKN027 OVC032 06/05 A3031 RMK AO2 SLP257 T00610050 56008

More Conditions Fewer Conditions

Pressure 30.29 in
Visibility 10.0 miles
Clouds Mostly Cloudy 2700 ft
Overcast 3200 ft
Dew Point 51 °F
Humidity 85%
Rainfall 0.00 in
Snow Depth Not available.
UV 0 out of 12
Pollen 3.00 out of 12
PM2.5 Good
Flu Activity Not available.
METAR KPSF 200854Z AUTO 00000KT 10SM BKN027 OVC032 06/05 A3031 RMK AO2 SLP257 T00610050 56008

More Conditions Fewer Conditions

10-Day Weather Forecast

Almanac

Astronomy

Sep. 20, 2014 Rise Set
Actual Time 6:40 AM EDT 6:55 PM EDT
Civil Twilight 6:11 AM EDT 7:23 PM EDT
Nautical Twilight 5:39 AM EDT 7:56 PM EDT
Astronomical Twilight 5:05 AM EDT 8:30 PM EDT
Moon 3:13 AM EDT 5:00 PM EDT
Length of Visible Light 13h 11m
Length of Day
12h 15m
Tomorrow will be 2m 49s shorter.
Waning Crescent, 13% of the Moon is Illuminated
Today
Waning Crescent
Sep 24
New
Oct 1
First Quarter
Oct 8
Full
Oct 15
Last Quarter

Today's Extremes

State Highs State Lows

Community

WunderPhotos

Upload Photos

1,754,794 photos uploaded!

WunderBlogs® & News

Nearby

Air Quality

  Air Quality AQ Index Pollutant
Yesterday Good
PM2.5
Yesterday Good
OZONE
Current Good
PM2.5
Saturday Good
OZONE
Saturday Good
PM2.5
Sunday Good
OZONE
Sunday Good
PM2.5
Monday Good
OZONE
Monday Good
PM2.5

Snow Depth

Station Depth Elevation
No new snow has been reported.

Earthquake Activity

City Distance Mag. Time & Date
No recent earthquake activity has been reported nearby.
Minimum magnitude displayed is 2.5.

Coastal Water Temperatures

Place Temperature
No Stations Reporting

Nearby Weather Stations